Time;durP1;ratioP1;P1;durP2;ratioP2;P2;SDS_P1;SDS_P2;PMS_P1;PMS_P2;Temp;Humidity;BMP_temperature;BMP_pressure;BME280_temperature;BME280_humidity;BME280_pressure;Samples;Min_cycle;Max_cycle;Signal;HPM_P1;HPM_P2
2023/12/27 00:01:32;;;;;;;5.50;3.40;;;3.00;99.90;;;;;;5001181;28;87903;-30
2023/12/27 00:03:58;;;;;;;6.57;2.65;;;3.00;99.90;;;;;;5000515;28;89518;-29
2023/12/27 00:06:23;;;;;;;8.02;3.42;;;2.90;99.90;;;;;;4999072;28;90343;-30
2023/12/27 00:08:49;;;;;;;5.80;3.22;;;2.90;99.90;;;;;;5000602;28;90074;-29
2023/12/27 00:11:18;;;;;;;8.00;3.42;;;2.80;99.90;;;;;;4999196;28;89277;-34
2023/12/27 00:13:43;;;;;;;6.35;2.08;;;2.80;99.90;;;;;;5001020;28;89062;-32
2023/12/27 00:16:10;;;;;;;6.75;4.55;;;2.80;99.90;;;;;;4998667;28;88042;-31
2023/12/27 00:18:35;;;;;;;8.32;4.40;;;2.80;99.90;;;;;;4999689;28;90126;-33
2023/12/27 00:21:01;;;;;;;8.15;4.00;;;2.70;99.90;;;;;;4999530;28;89724;-29
2023/12/27 00:23:30;;;;;;;9.23;3.25;;;2.70;99.90;;;;;;4999638;28;89566;-32
2023/12/27 00:25:56;;;;;;;;;;;2.70;99.90;;;;;;4999365;28;89519;-31
2023/12/27 00:28:22;;;;;;;18.05;6.40;;;2.80;99.90;;;;;;5001783;28;90151;-32
2023/12/27 00:30:49;;;;;;;8.02;4.05;;;2.70;99.90;;;;;;4986109;28;89424;-30
2023/12/27 00:33:18;;;;;;;5.78;3.20;;;2.70;99.90;;;;;;4999544;28;90484;-33
2023/12/27 00:35:44;;;;;;;6.10;3.10;;;2.70;99.90;;;;;;4999613;28;88312;-33
2023/12/27 00:38:10;;;;;;;4.22;3.08;;;2.70;99.90;;;;;;5000397;28;90358;-32
2023/12/27 00:40:35;;;;;;;8.65;4.45;;;2.70;99.90;;;;;;4985361;28;90267;-33
2023/12/27 00:43:01;;;;;;;7.63;4.93;;;2.70;99.90;;;;;;4979594;28;88984;-32
2023/12/27 00:45:27;;;;;;;5.20;3.97;;;2.70;99.90;;;;;;4980549;28;89665;-32
2023/12/27 00:47:52;;;;;;;8.60;3.45;;;2.70;99.90;;;;;;4980455;28;89214;-30
2023/12/27 00:50:19;;;;;;;14.20;4.68;;;2.60;99.90;;;;;;4980457;28;90756;-30
2023/12/27 00:52:44;;;;;;;7.10;3.08;;;2.70;99.90;;;;;;4980319;28;89659;-30
2023/12/27 00:55:10;;;;;;;6.43;3.88;;;2.70;99.90;;;;;;4979437;28;88099;-29
2023/12/27 00:57:35;;;;;;;4.68;2.97;;;2.60;99.90;;;;;;4980169;28;90569;-32
2023/12/27 01:00:01;;;;;;;4.95;3.17;;;2.60;99.90;;;;;;4992934;28;90003;-33
2023/12/27 01:02:27;;;;;;;13.70;5.45;;;2.60;99.90;;;;;;4980039;28;90108;-32
2023/12/27 01:04:55;;;;;;;6.78;3.78;;;2.60;99.90;;;;;;4979784;28;90775;-34
2023/12/27 01:07:22;;;;;;;5.20;2.58;;;2.60;99.90;;;;;;4980389;28;89765;-33
2023/12/27 01:09:48;;;;;;;8.75;3.30;;;2.60;99.90;;;;;;4981667;28;89524;-31
2023/12/27 01:12:13;;;;;;;4.55;2.60;;;2.60;99.90;;;;;;4979870;28;89719;-30
2023/12/27 01:14:39;;;;;;;5.05;4.50;;;2.60;99.90;;;;;;4980794;28;89365;-32
2023/12/27 01:17:05;;;;;;;4.75;3.60;;;2.60;99.90;;;;;;4979333;28;90300;-33
2023/12/27 01:19:31;;;;;;;16.80;6.10;;;2.60;99.90;;;;;;4979415;28;90818;-32
2023/12/27 01:21:56;;;;;;;10.27;4.30;;;2.60;99.90;;;;;;4988387;28;90016;-32
2023/12/27 01:24:22;;;;;;;5.53;4.05;;;2.60;99.90;;;;;;4984551;28;87605;-30
2023/12/27 01:26:48;;;;;;;8.35;3.25;;;2.50;99.90;;;;;;4980342;28;91160;-30
2023/12/27 01:29:13;;;;;;;14.57;5.35;;;2.60;99.90;;;;;;4992177;28;88964;-30
2023/12/27 01:31:39;;;;;;;10.20;4.53;;;2.60;99.90;;;;;;4980034;28;88928;-30
2023/12/27 01:34:05;;;;;;;20.10;5.55;;;2.50;99.90;;;;;;4980383;28;90178;-29
2023/12/27 01:36:30;;;;;;;12.65;5.22;;;2.50;99.90;;;;;;4979813;28;89618;-29
2023/12/27 01:38:56;;;;;;;10.60;5.15;;;2.50;99.90;;;;;;4979863;28;89614;-29
2023/12/27 01:41:22;;;;;;;8.10;4.50;;;2.50;99.90;;;;;;4980157;28;90079;-30
2023/12/27 01:43:47;;;;;;;8.80;5.20;;;2.60;99.90;;;;;;4978961;28;90550;-29
2023/12/27 01:46:13;;;;;;;25.95;5.93;;;2.50;99.90;;;;;;4979613;28;89933;-30
2023/12/27 01:48:41;;;;;;;7.32;4.85;;;2.50;99.90;;;;;;4979802;28;89088;-32
2023/12/27 01:51:07;;;;;;;6.73;5.30;;;2.50;99.90;;;;;;4979855;28;89500;-32
2023/12/27 01:53:33;;;;;;;7.53;4.60;;;2.60;99.90;;;;;;4978471;28;88623;-32
2023/12/27 01:56:01;;;;;;;10.95;6.35;;;2.50;99.90;;;;;;4979053;28;89911;-33
2023/12/27 01:58:27;;;;;;;5.75;4.35;;;2.60;99.90;;;;;;4980609;28;90210;-32
2023/12/27 02:00:56;;;;;;;18.98;7.38;;;2.50;99.90;;;;;;4979665;28;89613;-33
2023/12/27 02:03:22;;;;;;;;;;;2.50;99.90;;;;;;4980899;28;88978;-30
2023/12/27 02:05:48;;;;;;;6.20;4.68;;;2.60;99.90;;;;;;4980251;28;90024;-30
2023/12/27 02:08:14;;;;;;;9.30;5.90;;;2.60;99.90;;;;;;4979915;28;90680;-31
2023/12/27 02:10:41;;;;;;;6.78;4.90;;;2.60;99.90;;;;;;4980593;28;90430;-33
2023/12/27 02:13:07;;;;;;;7.28;5.57;;;2.60;99.90;;;;;;4981294;28;89479;-32
2023/12/27 02:15:34;;;;;;;18.08;6.00;;;2.60;99.90;;;;;;4980004;28;90451;-32
2023/12/27 02:18:01;;;;;;;9.30;5.05;;;2.60;99.90;;;;;;4979948;28;89643;-30
2023/12/27 02:20:27;;;;;;;8.13;6.30;;;2.60;99.90;;;;;;4979444;28;89480;-32
2023/12/27 02:22:54;;;;;;;9.15;5.28;;;2.70;99.90;;;;;;4981619;28;87993;-32
2023/12/27 02:25:20;;;;;;;10.18;4.53;;;2.70;99.90;;;;;;4980176;28;90182;-29
2023/12/27 02:27:46;;;;;;;13.38;5.05;;;2.60;99.90;;;;;;4984130;28;89426;-33
2023/12/27 02:30:20;;;;;;;6.78;5.32;;;2.60;99.90;;;;;;4998508;28;89010;-30
2023/12/27 02:32:49;;;;;;;10.02;5.65;;;2.60;99.90;;;;;;4980880;28;89447;-31
2023/12/27 02:35:15;;;;;;;6.32;5.70;;;2.60;99.90;;;;;;4978468;28;90224;-31
2023/12/27 02:37:41;;;;;;;6.60;4.90;;;2.60;99.90;;;;;;4979859;28;89915;-33
2023/12/27 02:40:08;;;;;;;6.47;5.68;;;2.60;99.90;;;;;;4978854;28;89073;-31
2023/12/27 02:42:35;;;;;;;12.75;7.53;;;2.60;99.90;;;;;;4979042;28;91509;-32
2023/12/27 02:45:00;;;;;;;8.43;5.85;;;2.60;99.90;;;;;;4979209;28;90215;-30
2023/12/27 02:47:26;;;;;;;8.75;4.57;;;2.60;99.90;;;;;;4978650;28;88757;-29
2023/12/27 02:49:51;;;;;;;9.45;6.60;;;2.60;99.90;;;;;;4979761;28;89272;-30
2023/12/27 02:52:17;;;;;;;8.15;4.63;;;2.60;99.90;;;;;;4978110;28;88037;-30
2023/12/27 02:54:42;;;;;;;7.57;5.22;;;2.60;99.90;;;;;;4979269;28;90262;-30
2023/12/27 02:57:08;;;;;;;7.38;4.30;;;2.60;99.90;;;;;;4981575;28;91059;-29
2023/12/27 02:59:33;;;;;;;6.93;4.72;;;2.60;99.90;;;;;;4998395;28;90141;-31
2023/12/27 03:01:59;;;;;;;4.88;4.00;;;2.60;99.90;;;;;;4994411;28;87967;-31
2023/12/27 03:04:25;;;;;;;16.58;5.57;;;2.60;99.90;;;;;;4988393;28;90356;-29
2023/12/27 03:06:50;;;;;;;6.35;5.30;;;2.60;99.90;;;;;;4981461;28;89292;-31
2023/12/27 03:09:16;;;;;;;9.32;5.38;;;2.60;99.90;;;;;;4976538;28;89475;-30
2023/12/27 03:11:42;;;;;;;15.05;5.28;;;2.70;99.90;;;;;;4991723;28;89810;-30
2023/12/27 03:14:07;;;;;;;11.15;5.50;;;2.60;99.90;;;;;;4978281;28;89876;-30
2023/12/27 03:16:33;;;;;;;10.07;4.95;;;2.70;99.90;;;;;;4978630;28;89835;-31
2023/12/27 03:18:59;;;;;;;7.30;3.95;;;2.70;99.90;;;;;;4981616;28;89567;-29
2023/12/27 03:21:25;;;;;;;9.13;5.68;;;2.70;99.90;;;;;;4985351;28;89597;-30
2023/12/27 03:23:51;;;;;;;9.45;4.63;;;2.70;99.90;;;;;;5001143;28;90327;-32
2023/12/27 03:26:17;;;;;;;15.50;4.68;;;2.70;99.90;;;;;;5000818;28;89794;-30
2023/12/27 03:28:42;;;;;;;9.50;5.57;;;2.80;99.90;;;;;;5001747;28;89685;-30
2023/12/27 03:31:08;;;;;;;7.85;4.00;;;2.80;99.90;;;;;;4984351;28;89081;-30
2023/12/27 03:33:34;;;;;;;7.03;4.40;;;2.80;99.90;;;;;;4980784;28;90053;-30
2023/12/27 03:35:59;;;;;;;9.93;5.53;;;2.80;99.90;;;;;;4981612;28;89234;-31
2023/12/27 03:38:25;;;;;;;7.57;5.05;;;2.70;99.90;;;;;;4981839;28;89512;-29
2023/12/27 03:40:50;;;;;;;14.15;5.45;;;2.70;99.90;;;;;;4982545;28;90147;-29
2023/12/27 03:43:16;;;;;;;5.65;4.40;;;2.70;99.90;;;;;;4981148;28;89765;-31
2023/12/27 03:45:42;;;;;;;4.63;4.10;;;2.70;99.90;;;;;;4981098;28;90681;-33
2023/12/27 03:48:08;;;;;;;5.38;3.42;;;2.60;99.90;;;;;;4982309;28;90311;-29
2023/12/27 03:50:34;;;;;;;7.15;5.43;;;2.60;99.90;;;;;;4982443;28;89115;-32
2023/12/27 03:53:00;;;;;;;5.78;3.75;;;2.60;99.90;;;;;;4982143;28;89005;-31
2023/12/27 03:55:26;;;;;;;9.13;5.10;;;2.60;99.90;;;;;;4981799;28;89405;-32
2023/12/27 03:57:52;;;;;;;5.05;4.18;;;2.60;99.90;;;;;;4981209;28;89322;-31
2023/12/27 04:00:19;;;;;;;7.35;3.85;;;2.60;99.90;;;;;;4983446;28;89302;-32
2023/12/27 04:02:45;;;;;;;6.10;3.90;;;2.60;99.90;;;;;;4982197;28;91867;-31
2023/12/27 04:05:12;;;;;;;7.32;4.05;;;2.60;99.90;;;;;;4982105;28;89770;-33
2023/12/27 04:07:38;;;;;;;4.75;3.53;;;2.50;99.90;;;;;;4981854;28;88516;-31
2023/12/27 04:10:05;;;;;;;8.57;4.07;;;2.50;99.90;;;;;;4981518;28;89070;-30
2023/12/27 04:12:31;;;;;;;10.30;5.35;;;2.50;99.90;;;;;;4981314;28;90548;-31
2023/12/27 04:14:57;;;;;;;6.15;4.22;;;2.50;99.90;;;;;;4981691;28;89761;-30
2023/12/27 04:17:22;;;;;;;5.55;3.60;;;2.50;99.90;;;;;;4981105;28;89263;-29
2023/12/27 04:19:48;;;;;;;13.48;5.20;;;2.50;99.90;;;;;;4982148;28;89492;-29
2023/12/27 04:22:13;;;;;;;9.23;6.32;;;2.50;99.90;;;;;;4980976;28;90121;-31
2023/12/27 04:24:39;;;;;;;7.85;5.20;;;2.50;99.90;;;;;;4981958;28;89434;-30
2023/12/27 04:27:05;;;;;;;11.25;5.65;;;2.40;99.90;;;;;;4981660;28;89449;-31
2023/12/27 04:29:30;;;;;;;11.93;4.55;;;2.40;99.90;;;;;;4997329;28;88270;-30
2023/12/27 04:31:56;;;;;;;7.38;6.00;;;2.40;99.90;;;;;;5000747;28;90870;-30
2023/12/27 04:34:22;;;;;;;9.43;4.35;;;2.30;99.90;;;;;;4999602;28;90783;-30
2023/12/27 04:36:47;;;;;;;5.25;3.83;;;2.10;99.90;;;;;;5000859;28;90360;-34
2023/12/27 04:39:13;;;;;;;5.35;3.42;;;2.00;99.90;;;;;;4999586;28;88584;-32
2023/12/27 04:41:40;;;;;;;6.38;4.35;;;2.00;99.90;;;;;;5000434;28;89821;-33
2023/12/27 04:44:06;;;;;;;4.65;4.25;;;1.90;99.90;;;;;;4982583;28;90493;-33
2023/12/27 04:46:31;;;;;;;4.10;3.70;;;1.90;99.90;;;;;;4980600;28;89739;-32
2023/12/27 04:48:57;;;;;;;4.30;3.78;;;1.90;99.90;;;;;;4981269;28;89552;-34
2023/12/27 04:51:22;;;;;;;4.55;4.13;;;1.90;99.90;;;;;;4981030;28;89172;-30
2023/12/27 04:53:48;;;;;;;16.35;6.18;;;1.90;99.90;;;;;;4980218;28;89584;-33
2023/12/27 04:56:16;;;;;;;7.00;3.20;;;1.90;99.90;;;;;;4980828;28;90170;-29
2023/12/27 04:58:42;;;;;;;5.70;4.40;;;1.90;99.90;;;;;;4980506;28;89625;-30
2023/12/27 05:01:08;;;;;;;6.13;4.50;;;1.90;99.90;;;;;;4980180;28;90185;-33
2023/12/27 05:03:35;;;;;;;6.43;3.50;;;1.90;99.90;;;;;;4981600;28;89474;-31
2023/12/27 05:06:10;;;;;;;5.05;3.92;;;2.00;99.90;;;;;;4980926;28;89261;-32
2023/12/27 05:08:39;;;;;;;8.20;4.85;;;2.00;99.90;;;;;;4981979;28;89114;-30
2023/12/27 05:11:16;;;;;;;6.45;3.70;;;2.00;99.90;;;;;;4981054;28;90318;-32
2023/12/27 05:13:42;;;;;;;10.95;4.65;;;2.00;99.90;;;;;;4970442;28;89891;-32
2023/12/27 05:16:15;;;;;;;6.47;4.32;;;2.00;99.90;;;;;;4982781;28;89784;-30
2023/12/27 05:18:41;;;;;;;22.63;6.63;;;2.00;99.90;;;;;;4982061;28;89700;-30
2023/12/27 05:21:08;;;;;;;4.40;4.00;;;2.00;99.90;;;;;;4981948;28;89964;-29
2023/12/27 05:23:34;;;;;;;5.97;4.38;;;2.00;99.90;;;;;;4980149;28;90854;-31
2023/12/27 05:26:01;;;;;;;7.68;5.18;;;1.90;99.90;;;;;;4981782;28;90430;-29
2023/12/27 05:28:26;;;;;;;9.43;5.25;;;2.00;99.90;;;;;;4989445;28;89976;-29
2023/12/27 05:30:52;;;;;;;5.07;4.63;;;2.00;99.90;;;;;;4997590;28;90342;-30
2023/12/27 05:33:18;;;;;;;5.68;3.95;;;2.00;99.90;;;;;;4979570;28;90471;-33
2023/12/27 05:35:43;;;;;;;8.02;5.75;;;2.00;99.90;;;;;;4978821;28;89832;-34
2023/12/27 05:38:09;;;;;;;7.72;5.60;;;2.00;99.90;;;;;;4980462;28;89546;-31
2023/12/27 05:40:34;;;;;;;8.90;5.57;;;2.00;99.90;;;;;;4976214;28;90236;-30
2023/12/27 05:43:00;;;;;;;6.43;5.75;;;2.00;99.90;;;;;;4974450;28;89317;-31
2023/12/27 05:45:25;;;;;;;7.50;5.93;;;2.00;99.90;;;;;;4979859;28;89394;-33
2023/12/27 05:47:52;;;;;;;7.35;5.35;;;2.00;99.90;;;;;;4979939;28;88854;-29
2023/12/27 05:50:17;;;;;;;7.55;5.40;;;2.00;99.90;;;;;;4979338;28;90243;-31
2023/12/27 05:52:43;;;;;;;8.85;5.85;;;2.00;99.90;;;;;;4979688;28;89316;-30
2023/12/27 05:55:09;;;;;;;7.22;5.50;;;2.10;99.90;;;;;;4979488;28;89407;-31
2023/12/27 05:57:35;;;;;;;11.13;6.90;;;2.00;99.90;;;;;;4979640;28;87875;-31
2023/12/27 06:00:00;;;;;;;11.77;6.05;;;2.10;99.90;;;;;;4980149;28;91363;-31
2023/12/27 06:02:26;;;;;;;10.45;6.97;;;2.10;99.90;;;;;;4979854;28;89220;-31
2023/12/27 06:04:51;;;;;;;8.50;6.85;;;2.10;99.90;;;;;;4979402;28;88927;-31
2023/12/27 06:07:17;;;;;;;7.75;6.07;;;2.10;99.90;;;;;;4980272;28;90141;-32
2023/12/27 06:09:43;;;;;;;7.15;6.50;;;2.10;99.90;;;;;;4979768;28;90363;-29
2023/12/27 06:12:08;;;;;;;9.77;6.75;;;2.10;99.90;;;;;;4979909;28;90103;-29
2023/12/27 06:14:35;;;;;;;9.13;6.97;;;2.10;99.90;;;;;;4979555;28;90006;-29
2023/12/27 06:17:01;;;;;;;8.00;6.53;;;2.10;99.90;;;;;;4979565;28;90113;-32
2023/12/27 06:19:28;;;;;;;11.00;6.28;;;2.10;99.90;;;;;;4980683;28;90220;-29
2023/12/27 06:21:54;;;;;;;9.35;8.45;;;2.20;99.90;;;;;;4987217;28;90435;-31
2023/12/27 06:24:20;;;;;;;8.27;6.68;;;2.20;99.90;;;;;;4988562;28;89597;-33
2023/12/27 06:26:45;;;;;;;11.45;7.00;;;2.20;99.90;;;;;;4991797;28;89131;-32
2023/12/27 06:29:11;;;;;;;13.50;6.78;;;2.30;99.90;;;;;;4993888;28;88929;-30
2023/12/27 06:31:36;;;;;;;10.85;8.13;;;2.20;99.90;;;;;;4999097;28;89835;-29
2023/12/27 06:34:02;;;;;;;10.88;7.30;;;2.30;99.90;;;;;;4997152;28;90273;-29
2023/12/27 06:36:28;;;;;;;7.45;5.97;;;2.30;99.90;;;;;;4998786;28;90161;-33
2023/12/27 06:38:54;;;;;;;11.65;8.02;;;2.30;99.90;;;;;;4996904;28;91754;-30
2023/12/27 06:41:19;;;;;;;13.27;8.80;;;2.30;99.90;;;;;;4998924;28;89423;-30
2023/12/27 06:43:45;;;;;;;12.23;8.05;;;2.30;99.90;;;;;;4996108;28;91071;-31
2023/12/27 06:46:11;;;;;;;12.63;8.38;;;2.30;99.90;;;;;;4997736;28;88598;-30
2023/12/27 06:48:36;;;;;;;15.43;8.90;;;2.30;99.90;;;;;;4997598;28;90227;-29
2023/12/27 06:51:04;;;;;;;8.98;7.70;;;2.30;99.90;;;;;;4998117;28;89925;-28
2023/12/27 06:53:29;;;;;;;11.13;8.32;;;2.40;99.90;;;;;;5000376;28;89715;-34
2023/12/27 06:55:55;;;;;;;14.07;8.85;;;2.40;99.90;;;;;;5001823;28;89124;-30
2023/12/27 06:58:21;;;;;;;11.05;8.88;;;2.40;99.90;;;;;;4976600;28;90122;-32
2023/12/27 07:00:47;;;;;;;12.45;8.40;;;2.40;99.90;;;;;;4982577;28;90769;-31
2023/12/27 07:03:13;;;;;;;12.38;8.95;;;2.40;99.90;;;;;;4986481;28;91423;-32
2023/12/27 07:05:38;;;;;;;13.63;8.10;;;2.40;99.90;;;;;;4994840;28;88352;-31
2023/12/27 07:08:05;;;;;;;12.27;8.18;;;2.40;99.90;;;;;;4992457;28;90481;-30
2023/12/27 07:10:31;;;;;;;12.10;8.20;;;2.40;99.90;;;;;;4995975;28;89302;-29
2023/12/27 07:12:57;;;;;;;15.48;8.75;;;2.40;99.90;;;;;;4991757;28;89399;-32
2023/12/27 07:15:23;;;;;;;13.20;7.50;;;2.50;99.90;;;;;;4996067;28;87946;-31
2023/12/27 07:17:49;;;;;;;16.60;7.78;;;2.50;99.90;;;;;;4992382;28;90255;-31
2023/12/27 07:20:15;;;;;;;14.40;8.25;;;2.50;99.90;;;;;;4995333;28;89931;-29
2023/12/27 07:22:40;;;;;;;13.75;8.80;;;2.50;99.90;;;;;;4991126;28;89365;-28
2023/12/27 07:25:06;;;;;;;13.80;8.10;;;2.40;99.90;;;;;;4995489;28;90647;-30
2023/12/27 07:27:31;;;;;;;11.25;8.32;;;2.50;99.90;;;;;;4991485;28;90403;-32
2023/12/27 07:29:57;;;;;;;10.73;7.28;;;2.50;99.90;;;;;;4991331;28;89581;-34
2023/12/27 07:32:23;;;;;;;10.88;6.95;;;2.50;99.90;;;;;;4974544;28;89287;-31
2023/12/27 07:34:48;;;;;;;9.40;8.40;;;2.50;99.90;;;;;;4979295;28;89984;-29
2023/12/27 07:37:14;;;;;;;13.73;8.10;;;2.60;99.90;;;;;;4979712;28;90051;-33
2023/12/27 07:39:40;;;;;;;10.70;8.40;;;2.60;99.90;;;;;;4979500;28;89796;-28
2023/12/27 07:45:00;;;;;;;11.73;6.78;;;2.60;99.90;;;;;;4938257;28;89048;-29
2023/12/27 07:47:25;;;;;;;15.88;7.43;;;2.60;99.90;;;;;;4939445;28;90071;-29
2023/12/27 07:49:51;;;;;;;10.80;7.75;;;2.60;99.90;;;;;;4939182;28;90559;-30
2023/12/27 07:52:17;;;;;;;11.57;8.35;;;2.60;99.90;;;;;;4938955;28;90765;-31
2023/12/27 07:54:43;;;;;;;11.00;7.80;;;2.60;99.90;;;;;;4940039;28;88826;-33
2023/12/27 07:57:08;;;;;;;11.20;7.38;;;2.70;99.90;;;;;;4938782;28;90307;-31
2023/12/27 07:59:34;;;;;;;11.13;7.18;;;2.70;99.90;;;;;;4939139;28;89941;-32
2023/12/27 08:02:00;;;;;;;14.20;7.82;;;2.70;99.90;;;;;;4939640;28;89108;-30
2023/12/27 08:04:26;;;;;;;15.35;7.85;;;2.70;99.90;;;;;;4937546;28;89549;-31
2023/12/27 08:06:52;;;;;;;10.75;7.22;;;2.80;99.90;;;;;;4939840;28;90341;-31
2023/12/27 08:09:18;;;;;;;8.20;6.70;;;2.80;99.90;;;;;;4939551;28;89753;-32
2023/12/27 08:11:44;;;;;;;10.10;7.25;;;2.80;99.90;;;;;;4938267;28;89220;-31
2023/12/27 08:14:10;;;;;;;15.18;7.03;;;2.80;99.90;;;;;;4939135;28;89715;-32
2023/12/27 08:16:35;;;;;;;13.07;7.70;;;2.80;99.90;;;;;;4938574;28;90248;-31
2023/12/27 08:19:01;;;;;;;11.85;6.50;;;2.90;99.90;;;;;;4938732;28;89658;-32
2023/12/27 08:21:27;;;;;;;10.77;6.95;;;2.90;99.90;;;;;;4936592;28;89456;-30
2023/12/27 08:23:53;;;;;;;9.55;7.15;;;2.90;99.90;;;;;;4938887;28;89367;-33
2023/12/27 08:26:19;;;;;;;9.13;7.03;;;3.00;99.90;;;;;;4938247;28;89865;-29
2023/12/27 08:28:45;;;;;;;12.65;7.15;;;3.00;99.90;;;;;;4927491;28;89224;-30
2023/12/27 08:31:13;;;;;;;42.90;8.20;;;3.00;99.90;;;;;;4936564;28;89828;-33
2023/12/27 08:33:39;;;;;;;8.70;7.17;;;3.10;99.90;;;;;;4937929;28;88667;-30
2023/12/27 08:36:05;;;;;;;9.55;6.70;;;3.10;99.90;;;;;;4933126;28;90381;-29
2023/12/27 08:38:32;;;;;;;10.35;6.80;;;3.20;99.90;;;;;;4938148;28;90327;-32
2023/12/27 08:40:58;;;;;;;16.67;7.50;;;3.20;99.90;;;;;;4938029;28;90667;-31
2023/12/27 08:43:29;;;;;;;9.05;5.70;;;3.30;99.90;;;;;;4930454;28;88521;-30
2023/12/27 08:45:56;;;;;;;10.73;5.70;;;3.30;99.90;;;;;;4937991;28;90256;-30
2023/12/27 08:48:21;;;;;;;19.23;9.00;;;3.30;99.90;;;;;;4933543;28;89622;-30
2023/12/27 08:50:48;;;;;;;10.23;7.53;;;3.30;99.90;;;;;;4939160;28;88521;-31
2023/12/27 08:53:14;;;;;;;7.70;4.88;;;3.30;99.90;;;;;;4938808;28;88494;-30
2023/12/27 08:55:40;;;;;;;10.32;7.18;;;3.40;99.90;;;;;;4937520;28;90411;-30
2023/12/27 08:58:05;;;;;;;20.80;7.78;;;3.40;99.90;;;;;;4938934;28;88796;-34
2023/12/27 09:00:31;;;;;;;14.18;6.50;;;3.40;99.90;;;;;;4938307;28;89611;-29
2023/12/27 09:02:57;;;;;;;21.75;7.53;;;3.50;99.90;;;;;;4938067;28;90381;-31
2023/12/27 09:05:22;;;;;;;9.15;6.00;;;3.50;99.90;;;;;;4938352;28;90087;-29
2023/12/27 09:07:48;;;;;;;12.45;6.72;;;3.60;99.90;;;;;;4938909;28;89117;-33
2023/12/27 09:10:14;;;;;;;16.13;6.55;;;3.60;99.90;;;;;;4936797;28;90632;-31
2023/12/27 09:12:39;;;;;;;8.95;6.45;;;3.60;99.90;;;;;;4932314;28;89066;-33
2023/12/27 09:15:07;;;;;;;10.18;6.13;;;3.60;99.90;;;;;;4937307;28;91017;-31
2023/12/27 09:17:33;;;;;;;8.98;6.93;;;3.70;99.90;;;;;;4937444;28;91027;-31
2023/12/27 09:19:58;;;;;;;9.00;5.22;;;3.70;99.90;;;;;;4937529;28;89452;-34
2023/12/27 09:22:24;;;;;;;8.77;5.40;;;3.80;99.90;;;;;;4938081;28;89861;-29
2023/12/27 09:24:49;;;;;;;9.18;5.85;;;3.80;99.90;;;;;;4937161;28;90319;-32
2023/12/27 09:27:17;;;;;;;16.98;7.43;;;3.90;99.90;;;;;;4937481;28;90508;-29
2023/12/27 09:29:44;;;;;;;11.18;6.95;;;4.00;99.90;;;;;;4924934;28;90832;-29
2023/12/27 09:32:10;;;;;;;12.25;6.30;;;4.00;99.90;;;;;;4952239;28;88686;-31
2023/12/27 09:34:36;;;;;;;13.73;7.20;;;4.10;99.90;;;;;;4937656;28;89846;-31
2023/12/27 09:37:03;;;;;;;10.25;6.22;;;4.10;99.90;;;;;;4938289;28;90349;-29
2023/12/27 09:39:29;;;;;;;8.68;5.25;;;4.10;99.90;;;;;;4937122;28;88753;-30
2023/12/27 09:41:55;;;;;;;9.13;6.95;;;4.20;99.90;;;;;;4938455;28;88041;-31
2023/12/27 09:44:21;;;;;;;15.27;7.03;;;4.20;99.90;;;;;;4927951;28;89969;-31
2023/12/27 09:46:47;;;;;;;9.30;7.25;;;4.30;99.90;;;;;;4937157;28;90094;-30
2023/12/27 09:49:15;;;;;;;9.55;7.20;;;4.40;99.90;;;;;;4937088;28;88681;-31
2023/12/27 09:51:42;;;;;;;15.52;6.70;;;4.40;99.90;;;;;;4937856;28;89845;-32
2023/12/27 09:54:08;;;;;;;11.75;6.32;;;4.40;99.90;;;;;;4929856;28;90244;-31
2023/12/27 09:56:35;;;;;;;10.40;7.75;;;4.40;99.90;;;;;;4937269;28;89876;-32
2023/12/27 09:59:05;;;;;;;11.80;7.70;;;4.50;99.90;;;;;;4934030;28;89546;-29
2023/12/27 10:01:37;;;;;;;15.20;9.05;;;4.50;99.90;;;;;;4932530;28;88868;-29
2023/12/27 10:04:27;;;;;;;20.00;6.72;;;4.60;99.90;;;;;;4937344;28;90286;-31
2023/12/27 10:06:53;;;;;;;14.23;8.43;;;4.60;99.90;;;;;;4937519;28;89726;-35
2023/12/27 10:09:19;;;;;;;14.43;7.75;;;4.60;99.90;;;;;;4937244;28;89350;-31
2023/12/27 10:11:45;;;;;;;14.80;7.43;;;4.70;99.90;;;;;;4937955;28;88563;-29
2023/12/27 10:14:12;;;;;;;9.98;6.22;;;4.70;99.90;;;;;;4936112;28;90858;-31
2023/12/27 10:16:38;;;;;;;15.48;6.90;;;4.70;99.90;;;;;;4936722;28;90831;-29
2023/12/27 10:19:05;;;;;;;13.05;7.03;;;4.80;99.90;;;;;;4936596;28;90488;-29
2023/12/27 10:21:43;;;;;;;12.88;7.18;;;4.80;99.90;;;;;;4937751;28;89444;-30
2023/12/27 10:24:12;;;;;;;17.13;7.55;;;4.80;99.90;;;;;;4936218;28;89953;-31
2023/12/27 10:26:38;;;;;;;23.33;7.13;;;4.80;99.90;;;;;;4937180;28;90131;-31
2023/12/27 10:29:04;;;;;;;12.63;7.53;;;4.80;99.90;;;;;;4923883;28;89583;-29
2023/12/27 10:31:30;;;;;;;11.40;7.25;;;4.80;99.90;;;;;;4937033;28;88242;-31
2023/12/27 10:33:58;;;;;;;16.63;8.00;;;4.80;99.90;;;;;;4936978;28;91249;-29
2023/12/27 10:36:25;;;;;;;15.55;8.23;;;4.90;99.90;;;;;;4937747;28;89831;-31
2023/12/27 10:38:51;;;;;;;11.57;8.07;;;4.90;99.90;;;;;;4936266;28;89053;-30
2023/12/27 10:41:16;;;;;;;13.80;6.97;;;4.90;99.90;;;;;;4936768;28;88866;-29
2023/12/27 10:43:42;;;;;;;9.30;6.68;;;4.90;99.90;;;;;;4935653;28;90290;-31
2023/12/27 10:46:09;;;;;;;9.32;6.95;;;5.00;99.90;;;;;;4935867;28;89774;-32
2023/12/27 10:48:39;;;;;;;11.85;7.38;;;5.00;99.90;;;;;;4937631;28;89731;-30
2023/12/27 10:51:07;;;;;;;28.23;9.98;;;5.00;99.90;;;;;;4937582;28;89526;-29
2023/12/27 10:53:35;;;;;;;11.38;7.55;;;5.10;99.90;;;;;;4933379;28;89931;-32
2023/12/27 10:56:03;;;;;;;12.07;8.77;;;5.10;99.90;;;;;;4936592;28;89734;-32
2023/12/27 10:58:33;;;;;;;12.18;6.90;;;5.20;99.90;;;;;;4935884;28;89187;-29
2023/12/27 11:01:00;;;;;;;9.88;6.22;;;5.20;99.90;;;;;;4934446;28;89868;-30
2023/12/27 11:03:29;;;;;;;15.10;9.40;;;5.20;99.90;;;;;;4936375;28;89046;-32
2023/12/27 11:05:57;;;;;;;12.68;7.53;;;5.20;99.90;;;;;;4936196;28;90595;-30
2023/12/27 11:08:24;;;;;;;13.57;7.28;;;5.20;99.90;;;;;;4936248;28;90024;-30
2023/12/27 11:10:52;;;;;;;11.17;7.40;;;5.30;99.90;;;;;;4937026;28;88396;-33
2023/12/27 11:13:20;;;;;;;10.43;7.90;;;5.30;99.90;;;;;;4936657;28;91603;-27
2023/12/27 11:15:47;;;;;;;14.13;7.72;;;5.30;99.90;;;;;;4936800;28;89798;-30
2023/12/27 11:18:12;;;;;;;10.75;6.93;;;5.30;99.90;;;;;;4936658;28;89667;-32
2023/12/27 11:20:40;;;;;;;10.57;7.03;;;5.30;99.90;;;;;;4931525;28;88511;-31
2023/12/27 11:23:07;;;;;;;24.63;10.43;;;5.30;99.90;;;;;;4935716;28;90114;-32
2023/12/27 11:25:33;;;;;;;13.85;7.93;;;5.40;99.90;;;;;;4936158;28;89911;-32
2023/12/27 11:27:59;;;;;;;14.27;8.23;;;5.30;99.90;;;;;;4930992;28;90253;-33
2023/12/27 11:30:28;;;;;;;16.67;8.18;;;5.40;99.90;;;;;;4927363;28;90292;-32
2023/12/27 11:32:54;;;;;;;15.07;8.82;;;5.30;99.90;;;;;;4936249;28;90004;-31
2023/12/27 11:35:33;;;;;;;19.70;8.20;;;5.30;99.90;;;;;;4937080;28;89195;-30
2023/12/27 11:38:15;;;;;;;13.63;7.85;;;5.30;99.90;;;;;;4937084;28;90131;-28
2023/12/27 11:40:40;;;;;;;17.40;8.18;;;5.30;99.90;;;;;;4940314;28;89715;-29
2023/12/27 11:43:07;;;;;;;14.15;8.10;;;5.30;99.90;;;;;;4938508;28;90545;-31
2023/12/27 11:46:06;;;;;;;14.05;6.47;;;5.30;99.90;;;;;;4938569;28;89868;-30
2023/12/27 11:48:38;;;;;;;12.38;7.38;;;5.30;99.90;;;;;;4933250;28;89682;-29
2023/12/27 11:51:32;;;;;;;15.70;7.65;;;5.30;99.90;;;;;;4940072;28;88223;-30
2023/12/27 11:53:58;;;;;;;17.42;8.55;;;5.30;99.90;;;;;;4937987;28;90233;-30
2023/12/27 11:56:28;;;;;;;14.35;8.07;;;5.30;99.90;;;;;;4939531;28;90828;-30
2023/12/27 11:58:53;;;;;;;14.20;7.38;;;5.30;99.90;;;;;;4939491;28;90874;-33
2023/12/27 12:01:26;;;;;;;11.00;7.57;;;5.30;99.90;;;;;;4939112;28;88151;-32
2023/12/27 12:04:11;;;;;;;9.15;7.57;;;5.30;99.90;;;;;;4927298;28;89859;-30
2023/12/27 12:06:59;;;;;;;13.43;7.53;;;5.40;99.90;;;;;;4939436;28;89654;-31
2023/12/27 12:09:38;;;;;;;16.27;8.10;;;5.30;99.90;;;;;;4939151;28;89608;-32
2023/12/27 12:12:20;;;;;;;12.43;7.65;;;5.30;99.90;;;;;;4927139;28;89220;-30
2023/12/27 12:14:46;;;;;;;13.68;8.68;;;5.30;99.90;;;;;;4938779;28;90139;-31
2023/12/27 12:17:15;;;;;;;15.05;8.05;;;5.30;99.90;;;;;;4939132;28;89839;-32
2023/12/27 12:19:41;;;;;;;12.52;8.38;;;5.30;99.90;;;;;;4938607;28;89929;-30
2023/12/27 12:22:07;;;;;;;19.00;9.27;;;5.30;99.90;;;;;;4938730;28;89999;-32
2023/12/27 12:24:33;;;;;;;14.43;8.35;;;5.30;99.90;;;;;;4938588;28;92120;-31
2023/12/27 12:26:59;;;;;;;19.95;10.48;;;5.30;99.90;;;;;;4938905;28;89658;-30
2023/12/27 12:29:26;;;;;;;15.25;9.45;;;5.30;99.90;;;;;;4925049;28;89202;-29
2023/12/27 12:31:54;;;;;;;14.98;8.48;;;5.40;99.90;;;;;;4939190;28;89415;-30
2023/12/27 12:34:23;;;;;;;14.73;9.68;;;5.40;99.90;;;;;;4938386;28;89664;-30
2023/12/27 12:36:50;;;;;;;14.35;10.45;;;5.40;99.90;;;;;;4937909;28;89622;-30
2023/12/27 12:39:16;;;;;;;13.00;8.60;;;5.40;99.90;;;;;;4938170;28;88381;-32
2023/12/27 12:41:42;;;;;;;11.70;7.72;;;5.50;99.90;;;;;;4939465;28;88758;-32
2023/12/27 12:44:12;;;;;;;17.38;8.80;;;5.50;99.90;;;;;;4937293;28;90191;-30
2023/12/27 12:46:39;;;;;;;14.02;7.60;;;5.50;99.90;;;;;;4937118;28;90444;-32
2023/12/27 12:49:05;;;;;;;10.68;8.52;;;5.60;99.90;;;;;;4937971;28;88893;-33
2023/12/27 12:51:31;;;;;;;10.93;7.93;;;5.60;99.90;;;;;;4930800;28;89522;-30
2023/12/27 12:53:57;;;;;;;16.45;8.38;;;5.60;99.90;;;;;;4937474;28;90733;-30